sensor_id;sensor_type;location;lat;lon;timestamp;P1;durP1;ratioP1;P2;durP2;ratioP2
16731;SDS011;8484;50.904;9.192;2023-11-21T00:01:14;4.73;;;3.30;;
16731;SDS011;8484;50.904;9.192;2023-11-21T00:03:53;7.10;;;3.53;;
16731;SDS011;8484;50.904;9.192;2023-11-21T00:06:21;8.53;;;4.20;;
16731;SDS011;8484;50.904;9.192;2023-11-21T00:08:50;6.60;;;4.30;;
16731;SDS011;8484;50.904;9.192;2023-11-21T00:11:22;6.73;;;4.97;;
16731;SDS011;8484;50.904;9.192;2023-11-21T00:13:58;7.13;;;4.40;;
16731;SDS011;8484;50.904;9.192;2023-11-21T00:16:26;7.13;;;4.43;;
16731;SDS011;8484;50.904;9.192;2023-11-21T00:18:54;6.23;;;4.60;;
16731;SDS011;8484;50.904;9.192;2023-11-21T00:21:21;5.90;;;4.60;;
16731;SDS011;8484;50.904;9.192;2023-11-21T00:23:53;9.83;;;5.07;;
16731;SDS011;8484;50.904;9.192;2023-11-21T00:26:21;6.53;;;4.77;;
16731;SDS011;8484;50.904;9.192;2023-11-21T00:28:51;5.83;;;4.60;;
16731;SDS011;8484;50.904;9.192;2023-11-21T00:31:21;8.93;;;4.80;;
16731;SDS011;8484;50.904;9.192;2023-11-21T00:33:48;8.03;;;4.83;;
16731;SDS011;8484;50.904;9.192;2023-11-21T00:36:17;7.10;;;5.03;;
16731;SDS011;8484;50.904;9.192;2023-11-21T00:38:44;6.17;;;4.77;;
16731;SDS011;8484;50.904;9.192;2023-11-21T00:41:12;7.87;;;5.13;;
16731;SDS011;8484;50.904;9.192;2023-11-21T00:43:38;6.97;;;5.10;;
16731;SDS011;8484;50.904;9.192;2023-11-21T00:46:13;6.37;;;4.47;;
16731;SDS011;8484;50.904;9.192;2023-11-21T00:48:41;7.77;;;5.47;;
16731;SDS011;8484;50.904;9.192;2023-11-21T00:51:08;5.17;;;4.67;;
16731;SDS011;8484;50.904;9.192;2023-11-21T00:53:43;8.80;;;5.90;;
16731;SDS011;8484;50.904;9.192;2023-11-21T00:56:10;7.03;;;5.70;;
16731;SDS011;8484;50.904;9.192;2023-11-21T00:58:42;9.93;;;6.50;;
16731;SDS011;8484;50.904;9.192;2023-11-21T01:01:11;10.83;;;6.13;;
16731;SDS011;8484;50.904;9.192;2023-11-21T01:03:41;9.40;;;6.43;;
16731;SDS011;8484;50.904;9.192;2023-11-21T01:06:08;10.40;;;6.37;;
16731;SDS011;8484;50.904;9.192;2023-11-21T01:08:36;8.37;;;6.20;;
16731;SDS011;8484;50.904;9.192;2023-11-21T01:11:05;7.27;;;5.73;;
16731;SDS011;8484;50.904;9.192;2023-11-21T01:13:33;13.40;;;6.67;;
16731;SDS011;8484;50.904;9.192;2023-11-21T01:16:07;7.07;;;5.97;;
16731;SDS011;8484;50.904;9.192;2023-11-21T01:18:35;11.13;;;6.57;;
16731;SDS011;8484;50.904;9.192;2023-11-21T01:21:04;6.93;;;5.80;;
16731;SDS011;8484;50.904;9.192;2023-11-21T01:23:32;5.87;;;5.20;;
16731;SDS011;8484;50.904;9.192;2023-11-21T01:26:01;8.10;;;6.10;;
16731;SDS011;8484;50.904;9.192;2023-11-21T01:28:32;8.07;;;5.77;;
16731;SDS011;8484;50.904;9.192;2023-11-21T01:31:00;6.47;;;5.83;;
16731;SDS011;8484;50.904;9.192;2023-11-21T01:33:27;7.63;;;5.47;;
16731;SDS011;8484;50.904;9.192;2023-11-21T01:35:54;8.67;;;6.03;;
16731;SDS011;8484;50.904;9.192;2023-11-21T01:38:26;6.40;;;5.60;;
16731;SDS011;8484;50.904;9.192;2023-11-21T01:40:53;8.57;;;6.67;;
16731;SDS011;8484;50.904;9.192;2023-11-21T01:43:20;10.40;;;6.30;;
16731;SDS011;8484;50.904;9.192;2023-11-21T01:45:51;8.17;;;6.20;;
16731;SDS011;8484;50.904;9.192;2023-11-21T01:48:29;10.27;;;6.40;;
16731;SDS011;8484;50.904;9.192;2023-11-21T01:50:58;7.97;;;5.90;;
16731;SDS011;8484;50.904;9.192;2023-11-21T01:53:25;9.97;;;6.33;;
16731;SDS011;8484;50.904;9.192;2023-11-21T01:55:58;7.77;;;6.27;;
16731;SDS011;8484;50.904;9.192;2023-11-21T01:58:27;9.60;;;6.17;;
16731;SDS011;8484;50.904;9.192;2023-11-21T02:00:56;10.03;;;6.00;;
16731;SDS011;8484;50.904;9.192;2023-11-21T02:03:26;7.67;;;6.40;;
16731;SDS011;8484;50.904;9.192;2023-11-21T02:05:56;8.67;;;6.00;;
16731;SDS011;8484;50.904;9.192;2023-11-21T02:08:28;10.10;;;6.53;;
16731;SDS011;8484;50.904;9.192;2023-11-21T02:10:55;10.03;;;6.20;;
16731;SDS011;8484;50.904;9.192;2023-11-21T02:13:24;12.40;;;6.90;;
16731;SDS011;8484;50.904;9.192;2023-11-21T02:15:58;8.97;;;6.00;;
16731;SDS011;8484;50.904;9.192;2023-11-21T02:18:32;8.27;;;5.57;;
16731;SDS011;8484;50.904;9.192;2023-11-21T02:21:04;8.20;;;6.00;;
16731;SDS011;8484;50.904;9.192;2023-11-21T02:23:39;7.20;;;6.10;;
16731;SDS011;8484;50.904;9.192;2023-11-21T02:26:14;9.20;;;6.63;;
16731;SDS011;8484;50.904;9.192;2023-11-21T02:28:42;9.53;;;6.27;;
16731;SDS011;8484;50.904;9.192;2023-11-21T02:31:13;10.43;;;6.40;;
16731;SDS011;8484;50.904;9.192;2023-11-21T02:33:44;9.73;;;6.00;;
16731;SDS011;8484;50.904;9.192;2023-11-21T02:36:11;9.30;;;6.20;;
16731;SDS011;8484;50.904;9.192;2023-11-21T02:38:43;7.67;;;5.57;;
16731;SDS011;8484;50.904;9.192;2023-11-21T02:41:10;9.67;;;5.63;;
16731;SDS011;8484;50.904;9.192;2023-11-21T02:43:48;6.87;;;5.20;;
16731;SDS011;8484;50.904;9.192;2023-11-21T02:46:17;8.03;;;6.23;;
16731;SDS011;8484;50.904;9.192;2023-11-21T02:48:47;10.27;;;7.07;;
16731;SDS011;8484;50.904;9.192;2023-11-21T02:51:14;10.63;;;6.77;;
16731;SDS011;8484;50.904;9.192;2023-11-21T02:53:46;9.17;;;6.67;;
16731;SDS011;8484;50.904;9.192;2023-11-21T02:56:17;9.10;;;6.40;;
16731;SDS011;8484;50.904;9.192;2023-11-21T02:58:45;6.67;;;5.50;;
16731;SDS011;8484;50.904;9.192;2023-11-21T03:01:14;10.60;;;6.00;;
16731;SDS011;8484;50.904;9.192;2023-11-21T03:03:48;12.43;;;5.63;;
16731;SDS011;8484;50.904;9.192;2023-11-21T03:06:16;9.17;;;5.73;;
16731;SDS011;8484;50.904;9.192;2023-11-21T03:08:43;6.77;;;5.63;;
16731;SDS011;8484;50.904;9.192;2023-11-21T03:11:17;9.47;;;5.57;;
16731;SDS011;8484;50.904;9.192;2023-11-21T03:13:44;10.17;;;5.83;;
16731;SDS011;8484;50.904;9.192;2023-11-21T03:16:16;8.53;;;5.63;;
16731;SDS011;8484;50.904;9.192;2023-11-21T03:18:51;8.07;;;5.27;;
16731;SDS011;8484;50.904;9.192;2023-11-21T03:21:21;8.90;;;5.57;;
16731;SDS011;8484;50.904;9.192;2023-11-21T03:23:50;11.37;;;6.20;;
16731;SDS011;8484;50.904;9.192;2023-11-21T03:26:17;8.17;;;5.73;;
16731;SDS011;8484;50.904;9.192;2023-11-21T03:28:44;14.53;;;6.23;;
16731;SDS011;8484;50.904;9.192;2023-11-21T03:31:12;11.60;;;5.80;;
16731;SDS011;8484;50.904;9.192;2023-11-21T03:33:39;8.97;;;5.80;;
16731;SDS011;8484;50.904;9.192;2023-11-21T03:36:07;9.77;;;6.50;;
16731;SDS011;8484;50.904;9.192;2023-11-21T03:38:36;9.57;;;6.27;;
16731;SDS011;8484;50.904;9.192;2023-11-21T03:41:06;8.87;;;6.33;;
16731;SDS011;8484;50.904;9.192;2023-11-21T03:43:37;9.47;;;6.40;;
16731;SDS011;8484;50.904;9.192;2023-11-21T03:46:04;11.23;;;7.07;;
16731;SDS011;8484;50.904;9.192;2023-11-21T03:48:36;8.63;;;6.03;;
16731;SDS011;8484;50.904;9.192;2023-11-21T03:51:09;10.83;;;6.20;;
16731;SDS011;8484;50.904;9.192;2023-11-21T03:53:36;8.40;;;6.10;;
16731;SDS011;8484;50.904;9.192;2023-11-21T03:56:03;9.57;;;6.33;;
16731;SDS011;8484;50.904;9.192;2023-11-21T03:58:36;12.23;;;6.60;;
16731;SDS011;8484;50.904;9.192;2023-11-21T04:01:04;8.20;;;5.97;;
16731;SDS011;8484;50.904;9.192;2023-11-21T04:03:36;11.27;;;7.00;;
16731;SDS011;8484;50.904;9.192;2023-11-21T04:06:08;10.37;;;6.40;;
16731;SDS011;8484;50.904;9.192;2023-11-21T04:08:36;10.37;;;6.47;;
16731;SDS011;8484;50.904;9.192;2023-11-21T04:11:03;10.10;;;6.83;;
16731;SDS011;8484;50.904;9.192;2023-11-21T04:13:30;9.03;;;6.30;;
16731;SDS011;8484;50.904;9.192;2023-11-21T04:15:58;8.77;;;5.83;;
16731;SDS011;8484;50.904;9.192;2023-11-21T04:18:28;8.40;;;6.03;;
16731;SDS011;8484;50.904;9.192;2023-11-21T04:20:55;11.10;;;6.73;;
16731;SDS011;8484;50.904;9.192;2023-11-21T04:23:22;7.30;;;6.40;;
16731;SDS011;8484;50.904;9.192;2023-11-21T04:25:49;10.13;;;6.50;;
16731;SDS011;8484;50.904;9.192;2023-11-21T04:28:15;8.17;;;6.13;;
16731;SDS011;8484;50.904;9.192;2023-11-21T04:30:43;9.60;;;5.67;;
16731;SDS011;8484;50.904;9.192;2023-11-21T04:33:12;9.77;;;6.10;;
16731;SDS011;8484;50.904;9.192;2023-11-21T04:35:39;8.73;;;6.03;;
16731;SDS011;8484;50.904;9.192;2023-11-21T04:38:05;7.33;;;6.03;;
16731;SDS011;8484;50.904;9.192;2023-11-21T04:40:32;7.60;;;5.63;;
16731;SDS011;8484;50.904;9.192;2023-11-21T04:42:59;8.93;;;5.77;;
16731;SDS011;8484;50.904;9.192;2023-11-21T04:45:27;6.47;;;5.83;;
16731;SDS011;8484;50.904;9.192;2023-11-21T04:47:54;7.87;;;5.57;;
16731;SDS011;8484;50.904;9.192;2023-11-21T04:50:25;9.20;;;7.03;;
16731;SDS011;8484;50.904;9.192;2023-11-21T04:52:52;9.37;;;6.77;;
16731;SDS011;8484;50.904;9.192;2023-11-21T04:55:19;8.80;;;7.03;;
16731;SDS011;8484;50.904;9.192;2023-11-21T04:57:46;32.13;;;8.30;;
16731;SDS011;8484;50.904;9.192;2023-11-21T05:00:14;77.50;;;8.53;;
16731;SDS011;8484;50.904;9.192;2023-11-21T05:02:41;88.13;;;8.27;;
16731;SDS011;8484;50.904;9.192;2023-11-21T05:05:09;110.73;;;8.83;;
16731;SDS011;8484;50.904;9.192;2023-11-21T05:07:38;75.47;;;9.13;;
16731;SDS011;8484;50.904;9.192;2023-11-21T05:10:06;149.73;;;9.90;;
16731;SDS011;8484;50.904;9.192;2023-11-21T05:12:36;64.47;;;8.07;;
16731;SDS011;8484;50.904;9.192;2023-11-21T05:15:04;81.40;;;9.13;;
16731;SDS011;8484;50.904;9.192;2023-11-21T05:17:35;282.60;;;13.13;;
16731;SDS011;8484;50.904;9.192;2023-11-21T05:20:02;110.67;;;10.37;;
16731;SDS011;8484;50.904;9.192;2023-11-21T05:22:30;108.17;;;10.83;;
16731;SDS011;8484;50.904;9.192;2023-11-21T05:24:58;146.80;;;12.60;;
16731;SDS011;8484;50.904;9.192;2023-11-21T05:27:25;404.10;;;20.53;;
16731;SDS011;8484;50.904;9.192;2023-11-21T05:29:52;290.93;;;14.50;;
16731;SDS011;8484;50.904;9.192;2023-11-21T05:32:19;92.57;;;11.63;;
16731;SDS011;8484;50.904;9.192;2023-11-21T05:34:46;214.60;;;14.30;;
16731;SDS011;8484;50.904;9.192;2023-11-21T05:37:13;203.90;;;14.87;;
16731;SDS011;8484;50.904;9.192;2023-11-21T05:39:40;137.67;;;11.53;;
16731;SDS011;8484;50.904;9.192;2023-11-21T05:42:08;155.53;;;10.73;;
16731;SDS011;8484;50.904;9.192;2023-11-21T05:44:36;136.30;;;10.83;;
16731;SDS011;8484;50.904;9.192;2023-11-21T05:47:03;63.50;;;9.20;;
16731;SDS011;8484;50.904;9.192;2023-11-21T05:49:31;114.47;;;11.50;;
16731;SDS011;8484;50.904;9.192;2023-11-21T05:51:59;69.70;;;10.20;;
16731;SDS011;8484;50.904;9.192;2023-11-21T05:54:26;83.67;;;9.70;;
16731;SDS011;8484;50.904;9.192;2023-11-21T05:56:53;91.83;;;10.97;;
16731;SDS011;8484;50.904;9.192;2023-11-21T05:59:22;68.97;;;10.17;;
16731;SDS011;8484;50.904;9.192;2023-11-21T06:01:49;81.13;;;10.17;;
16731;SDS011;8484;50.904;9.192;2023-11-21T06:04:16;85.03;;;11.80;;
16731;SDS011;8484;50.904;9.192;2023-11-21T06:06:43;73.53;;;9.30;;
16731;SDS011;8484;50.904;9.192;2023-11-21T06:09:10;92.67;;;11.73;;
16731;SDS011;8484;50.904;9.192;2023-11-21T06:11:38;50.07;;;9.47;;
16731;SDS011;8484;50.904;9.192;2023-11-21T06:14:05;61.90;;;9.30;;
16731;SDS011;8484;50.904;9.192;2023-11-21T06:16:34;69.03;;;8.90;;
16731;SDS011;8484;50.904;9.192;2023-11-21T06:19:01;104.90;;;10.07;;
16731;SDS011;8484;50.904;9.192;2023-11-21T06:21:28;68.57;;;9.50;;
16731;SDS011;8484;50.904;9.192;2023-11-21T06:23:55;66.37;;;9.40;;
16731;SDS011;8484;50.904;9.192;2023-11-21T06:26:22;67.93;;;9.70;;
16731;SDS011;8484;50.904;9.192;2023-11-21T06:28:50;34.70;;;7.63;;
16731;SDS011;8484;50.904;9.192;2023-11-21T06:31:18;68.90;;;8.83;;
16731;SDS011;8484;50.904;9.192;2023-11-21T06:33:48;57.20;;;8.17;;
16731;SDS011;8484;50.904;9.192;2023-11-21T06:36:17;10.63;;;6.37;;
16731;SDS011;8484;50.904;9.192;2023-11-21T06:38:43;36.47;;;7.10;;
16731;SDS011;8484;50.904;9.192;2023-11-21T06:41:11;40.27;;;7.57;;
16731;SDS011;8484;50.904;9.192;2023-11-21T06:43:40;44.57;;;7.70;;
16731;SDS011;8484;50.904;9.192;2023-11-21T06:46:10;21.27;;;6.23;;
16731;SDS011;8484;50.904;9.192;2023-11-21T06:48:39;13.23;;;6.97;;
16731;SDS011;8484;50.904;9.192;2023-11-21T06:51:09;15.73;;;6.37;;
16731;SDS011;8484;50.904;9.192;2023-11-21T06:53:37;15.13;;;6.43;;
16731;SDS011;8484;50.904;9.192;2023-11-21T06:56:04;29.90;;;7.57;;
16731;SDS011;8484;50.904;9.192;2023-11-21T06:58:41;11.77;;;6.80;;
16731;SDS011;8484;50.904;9.192;2023-11-21T07:01:07;10.13;;;6.67;;
16731;SDS011;8484;50.904;9.192;2023-11-21T07:03:34;8.93;;;6.50;;
16731;SDS011;8484;50.904;9.192;2023-11-21T07:06:02;21.90;;;7.10;;
16731;SDS011;8484;50.904;9.192;2023-11-21T07:08:31;25.73;;;7.17;;
16731;SDS011;8484;50.904;9.192;2023-11-21T07:10:57;8.97;;;6.60;;
16731;SDS011;8484;50.904;9.192;2023-11-21T07:13:24;18.37;;;7.23;;
16731;SDS011;8484;50.904;9.192;2023-11-21T07:15:51;18.83;;;7.17;;
16731;SDS011;8484;50.904;9.192;2023-11-21T07:18:19;19.10;;;7.57;;
16731;SDS011;8484;50.904;9.192;2023-11-21T07:20:46;19.03;;;7.23;;
16731;SDS011;8484;50.904;9.192;2023-11-21T07:23:13;14.07;;;6.77;;
16731;SDS011;8484;50.904;9.192;2023-11-21T07:25:42;9.17;;;6.93;;
16731;SDS011;8484;50.904;9.192;2023-11-21T07:28:09;15.37;;;6.50;;
16731;SDS011;8484;50.904;9.192;2023-11-21T07:30:35;10.63;;;7.20;;
16731;SDS011;8484;50.904;9.192;2023-11-21T07:33:02;8.60;;;7.13;;
16731;SDS011;8484;50.904;9.192;2023-11-21T07:35:30;10.73;;;7.17;;
16731;SDS011;8484;50.904;9.192;2023-11-21T07:37:57;13.97;;;7.93;;
16731;SDS011;8484;50.904;9.192;2023-11-21T07:40:24;19.60;;;9.00;;
16731;SDS011;8484;50.904;9.192;2023-11-21T07:42:54;25.13;;;7.50;;
16731;SDS011;8484;50.904;9.192;2023-11-21T07:45:22;36.90;;;8.57;;
16731;SDS011;8484;50.904;9.192;2023-11-21T07:47:49;23.43;;;8.33;;
16731;SDS011;8484;50.904;9.192;2023-11-21T07:50:16;56.23;;;9.47;;
16731;SDS011;8484;50.904;9.192;2023-11-21T07:52:46;44.80;;;8.67;;
16731;SDS011;8484;50.904;9.192;2023-11-21T07:55:13;41.97;;;8.67;;
16731;SDS011;8484;50.904;9.192;2023-11-21T07:57:40;44.70;;;7.97;;
16731;SDS011;8484;50.904;9.192;2023-11-21T08:00:09;59.03;;;9.70;;
16731;SDS011;8484;50.904;9.192;2023-11-21T08:02:37;27.77;;;8.67;;
16731;SDS011;8484;50.904;9.192;2023-11-21T08:05:05;53.50;;;10.57;;
16731;SDS011;8484;50.904;9.192;2023-11-21T08:07:33;50.40;;;10.17;;
16731;SDS011;8484;50.904;9.192;2023-11-21T08:09:59;49.80;;;8.43;;
16731;SDS011;8484;50.904;9.192;2023-11-21T08:12:26;22.87;;;7.23;;
16731;SDS011;8484;50.904;9.192;2023-11-21T08:14:53;44.27;;;7.57;;
16731;SDS011;8484;50.904;9.192;2023-11-21T08:17:21;44.83;;;8.83;;
16731;SDS011;8484;50.904;9.192;2023-11-21T08:19:48;127.20;;;8.00;;
16731;SDS011;8484;50.904;9.192;2023-11-21T08:22:18;14.60;;;5.77;;
16731;SDS011;8484;50.904;9.192;2023-11-21T08:24:45;56.27;;;6.27;;
16731;SDS011;8484;50.904;9.192;2023-11-21T08:27:14;31.10;;;5.73;;
16731;SDS011;8484;50.904;9.192;2023-11-21T08:29:41;43.07;;;6.20;;
16731;SDS011;8484;50.904;9.192;2023-11-21T08:32:08;62.10;;;6.50;;
16731;SDS011;8484;50.904;9.192;2023-11-21T09:00:56;8.90;;;6.53;;
16731;SDS011;8484;50.904;9.192;2023-11-21T09:08:06;9.67;;;6.43;;
16731;SDS011;8484;50.904;9.192;2023-11-21T09:22:57;9.13;;;6.57;;
16731;SDS011;8484;50.904;9.192;2023-11-21T09:26:28;11.57;;;7.70;;
16731;SDS011;8484;50.904;9.192;2023-11-21T09:33:01;8.83;;;6.50;;
16731;SDS011;8484;50.904;9.192;2023-11-21T11:03:54;10.20;;;7.40;;
16731;SDS011;8484;50.904;9.192;2023-11-21T11:06:22;11.97;;;8.10;;
16731;SDS011;8484;50.904;9.192;2023-11-21T11:08:52;11.57;;;7.43;;
16731;SDS011;8484;50.904;9.192;2023-11-21T11:11:19;12.67;;;7.47;;
16731;SDS011;8484;50.904;9.192;2023-11-21T11:13:46;10.73;;;7.33;;
16731;SDS011;8484;50.904;9.192;2023-11-21T11:16:13;10.57;;;7.60;;
16731;SDS011;8484;50.904;9.192;2023-11-21T11:18:44;13.33;;;7.77;;
16731;SDS011;8484;50.904;9.192;2023-11-21T11:21:18;15.13;;;7.97;;
16731;SDS011;8484;50.904;9.192;2023-11-21T11:23:55;9.93;;;7.80;;
16731;SDS011;8484;50.904;9.192;2023-11-21T11:26:41;13.13;;;6.97;;
16731;SDS011;8484;50.904;9.192;2023-11-21T11:29:14;11.87;;;7.17;;
16731;SDS011;8484;50.904;9.192;2023-11-21T11:32:03;9.70;;;7.03;;
16731;SDS011;8484;50.904;9.192;2023-11-21T11:34:41;10.03;;;6.63;;
16731;SDS011;8484;50.904;9.192;2023-11-21T11:37:14;10.23;;;7.27;;
16731;SDS011;8484;50.904;9.192;2023-11-21T11:39:41;14.43;;;7.23;;
16731;SDS011;8484;50.904;9.192;2023-11-21T11:42:11;12.60;;;7.30;;
16731;SDS011;8484;50.904;9.192;2023-11-21T11:44:47;11.13;;;7.13;;
16731;SDS011;8484;50.904;9.192;2023-11-21T11:47:20;10.80;;;7.43;;
16731;SDS011;8484;50.904;9.192;2023-11-21T11:50:05;10.87;;;7.13;;
16731;SDS011;8484;50.904;9.192;2023-11-21T11:52:40;10.37;;;6.97;;
16731;SDS011;8484;50.904;9.192;2023-11-21T11:55:09;11.00;;;6.90;;
16731;SDS011;8484;50.904;9.192;2023-11-21T11:57:38;10.43;;;7.40;;
16731;SDS011;8484;50.904;9.192;2023-11-21T12:00:13;11.90;;;7.33;;
16731;SDS011;8484;50.904;9.192;2023-11-21T12:02:46;12.77;;;7.40;;
16731;SDS011;8484;50.904;9.192;2023-11-21T12:05:16;13.23;;;7.33;;
16731;SDS011;8484;50.904;9.192;2023-11-21T12:07:46;11.43;;;7.50;;
16731;SDS011;8484;50.904;9.192;2023-11-21T12:10:15;11.43;;;6.97;;
16731;SDS011;8484;50.904;9.192;2023-11-21T12:12:48;15.30;;;7.10;;
16731;SDS011;8484;50.904;9.192;2023-11-21T12:15:16;11.27;;;7.23;;
16731;SDS011;8484;50.904;9.192;2023-11-21T12:17:44;9.43;;;6.60;;
16731;SDS011;8484;50.904;9.192;2023-11-21T12:20:13;16.43;;;7.17;;
16731;SDS011;8484;50.904;9.192;2023-11-21T12:22:43;19.77;;;6.80;;
16731;SDS011;8484;50.904;9.192;2023-11-21T12:25:14;10.53;;;6.53;;
16731;SDS011;8484;50.904;9.192;2023-11-21T12:27:43;10.17;;;6.90;;
16731;SDS011;8484;50.904;9.192;2023-11-21T12:30:12;12.97;;;6.30;;
16731;SDS011;8484;50.904;9.192;2023-11-21T12:32:41;8.03;;;6.17;;
16731;SDS011;8484;50.904;9.192;2023-11-21T12:35:08;14.37;;;7.50;;
16731;SDS011;8484;50.904;9.192;2023-11-21T12:37:39;9.57;;;5.87;;
16731;SDS011;8484;50.904;9.192;2023-11-21T12:40:09;10.57;;;5.43;;
16731;SDS011;8484;50.904;9.192;2023-11-21T12:42:42;8.80;;;4.97;;
16731;SDS011;8484;50.904;9.192;2023-11-21T12:45:21;9.30;;;6.03;;
16731;SDS011;8484;50.904;9.192;2023-11-21T12:47:51;8.87;;;5.10;;
16731;SDS011;8484;50.904;9.192;2023-11-21T12:50:22;9.00;;;5.10;;
16731;SDS011;8484;50.904;9.192;2023-11-21T12:52:54;7.93;;;6.10;;
16731;SDS011;8484;50.904;9.192;2023-11-21T12:55:29;8.93;;;5.60;;
16731;SDS011;8484;50.904;9.192;2023-11-21T12:58:00;9.33;;;5.83;;
16731;SDS011;8484;50.904;9.192;2023-11-21T13:00:34;10.70;;;5.80;;
16731;SDS011;8484;50.904;9.192;2023-11-21T13:03:03;8.37;;;5.37;;
16731;SDS011;8484;50.904;9.192;2023-11-21T13:05:33;8.37;;;5.50;;
16731;SDS011;8484;50.904;9.192;2023-11-21T13:08:04;13.60;;;6.00;;
16731;SDS011;8484;50.904;9.192;2023-11-21T13:10:33;9.30;;;5.70;;
16731;SDS011;8484;50.904;9.192;2023-11-21T13:13:04;9.90;;;6.80;;
16731;SDS011;8484;50.904;9.192;2023-11-21T13:15:34;9.27;;;6.67;;
16731;SDS011;8484;50.904;9.192;2023-11-21T13:18:06;9.70;;;6.07;;
16731;SDS011;8484;50.904;9.192;2023-11-21T13:20:36;10.13;;;6.57;;
16731;SDS011;8484;50.904;9.192;2023-11-21T13:23:07;9.27;;;6.57;;
16731;SDS011;8484;50.904;9.192;2023-11-21T13:25:37;9.70;;;5.60;;
16731;SDS011;8484;50.904;9.192;2023-11-21T13:28:07;11.87;;;6.10;;
16731;SDS011;8484;50.904;9.192;2023-11-21T13:30:35;11.80;;;5.67;;
16731;SDS011;8484;50.904;9.192;2023-11-21T13:33:04;9.40;;;5.87;;
16731;SDS011;8484;50.904;9.192;2023-11-21T13:35:33;10.33;;;6.10;;
16731;SDS011;8484;50.904;9.192;2023-11-21T13:38:03;12.73;;;6.90;;
16731;SDS011;8484;50.904;9.192;2023-11-21T13:40:32;14.37;;;6.87;;
16731;SDS011;8484;50.904;9.192;2023-11-21T13:43:09;8.70;;;6.10;;
16731;SDS011;8484;50.904;9.192;2023-11-21T13:45:39;9.50;;;5.93;;
16731;SDS011;8484;50.904;9.192;2023-11-21T13:48:09;8.70;;;6.27;;
16731;SDS011;8484;50.904;9.192;2023-11-21T13:50:39;11.03;;;6.60;;
16731;SDS011;8484;50.904;9.192;2023-11-21T13:53:13;11.27;;;6.70;;
16731;SDS011;8484;50.904;9.192;2023-11-21T13:55:47;7.50;;;6.20;;
16731;SDS011;8484;50.904;9.192;2023-11-21T13:58:16;9.37;;;6.43;;
16731;SDS011;8484;50.904;9.192;2023-11-21T14:00:49;11.33;;;7.37;;
16731;SDS011;8484;50.904;9.192;2023-11-21T14:03:23;10.27;;;6.33;;
16731;SDS011;8484;50.904;9.192;2023-11-21T14:06:03;9.27;;;6.67;;
16731;SDS011;8484;50.904;9.192;2023-11-21T14:08:39;11.37;;;6.13;;
16731;SDS011;8484;50.904;9.192;2023-11-21T14:11:06;9.43;;;6.10;;
16731;SDS011;8484;50.904;9.192;2023-11-21T14:13:37;8.17;;;5.80;;
16731;SDS011;8484;50.904;9.192;2023-11-21T14:16:10;8.93;;;5.93;;
16731;SDS011;8484;50.904;9.192;2023-11-21T14:18:39;11.40;;;7.57;;
16731;SDS011;8484;50.904;9.192;2023-11-21T14:21:17;15.03;;;7.53;;
16731;SDS011;8484;50.904;9.192;2023-11-21T14:23:48;11.13;;;6.77;;
16731;SDS011;8484;50.904;9.192;2023-11-21T14:26:15;9.30;;;7.20;;
16731;SDS011;8484;50.904;9.192;2023-11-21T14:28:44;9.87;;;5.57;;
16731;SDS011;8484;50.904;9.192;2023-11-21T14:31:14;5.37;;;4.13;;
16731;SDS011;8484;50.904;9.192;2023-11-21T14:33:42;5.73;;;4.10;;
16731;SDS011;8484;50.904;9.192;2023-11-21T14:36:10;7.33;;;4.57;;
16731;SDS011;8484;50.904;9.192;2023-11-21T14:38:37;6.77;;;4.73;;
16731;SDS011;8484;50.904;9.192;2023-11-21T14:41:04;7.33;;;4.73;;
16731;SDS011;8484;50.904;9.192;2023-11-21T14:43:33;6.30;;;3.87;;
16731;SDS011;8484;50.904;9.192;2023-11-21T14:48:33;6.10;;;3.67;;
16731;SDS011;8484;50.904;9.192;2023-11-21T14:51:07;5.27;;;3.77;;
16731;SDS011;8484;50.904;9.192;2023-11-21T14:53:56;8.53;;;3.57;;
16731;SDS011;8484;50.904;9.192;2023-11-21T14:56:25;4.20;;;3.30;;
16731;SDS011;8484;50.904;9.192;2023-11-21T14:58:56;5.20;;;3.37;;
16731;SDS011;8484;50.904;9.192;2023-11-21T15:01:24;5.23;;;3.90;;
16731;SDS011;8484;50.904;9.192;2023-11-21T15:04:08;4.30;;;3.37;;
16731;SDS011;8484;50.904;9.192;2023-11-21T15:06:40;4.90;;;3.47;;
16731;SDS011;8484;50.904;9.192;2023-11-21T15:09:08;5.03;;;3.67;;
16731;SDS011;8484;50.904;9.192;2023-11-21T15:15:13;5.00;;;3.83;;
16731;SDS011;8484;50.904;9.192;2023-11-21T15:18:29;6.53;;;4.00;;
16731;SDS011;8484;50.904;9.192;2023-11-21T15:21:19;7.27;;;4.93;;
16731;SDS011;8484;50.904;9.192;2023-11-21T15:23:58;10.70;;;6.57;;
16731;SDS011;8484;50.904;9.192;2023-11-21T15:26:38;7.07;;;5.37;;
16731;SDS011;8484;50.904;9.192;2023-11-21T15:29:15;6.37;;;4.73;;
16731;SDS011;8484;50.904;9.192;2023-11-21T15:31:57;5.23;;;4.40;;
16731;SDS011;8484;50.904;9.192;2023-11-21T15:34:36;5.60;;;4.87;;
16731;SDS011;8484;50.904;9.192;2023-11-21T15:37:04;6.33;;;4.83;;
16731;SDS011;8484;50.904;9.192;2023-11-21T15:39:39;5.73;;;4.50;;
16731;SDS011;8484;50.904;9.192;2023-11-21T15:42:07;8.50;;;5.97;;
16731;SDS011;8484;50.904;9.192;2023-11-21T15:44:42;6.43;;;5.47;;
16731;SDS011;8484;50.904;9.192;2023-11-21T15:47:30;7.43;;;5.70;;
16731;SDS011;8484;50.904;9.192;2023-11-21T15:50:03;8.63;;;6.90;;
16731;SDS011;8484;50.904;9.192;2023-11-21T15:52:42;10.67;;;7.37;;
16731;SDS011;8484;50.904;9.192;2023-11-21T15:55:21;10.17;;;6.20;;
16731;SDS011;8484;50.904;9.192;2023-11-21T15:58:02;8.13;;;6.03;;
16731;SDS011;8484;50.904;9.192;2023-11-21T16:00:45;7.17;;;6.00;;
16731;SDS011;8484;50.904;9.192;2023-11-21T16:03:30;8.67;;;6.40;;
16731;SDS011;8484;50.904;9.192;2023-11-21T16:06:06;8.57;;;7.00;;
16731;SDS011;8484;50.904;9.192;2023-11-21T16:08:42;6.57;;;5.67;;
16731;SDS011;8484;50.904;9.192;2023-11-21T16:11:09;7.33;;;6.43;;
16731;SDS011;8484;50.904;9.192;2023-11-21T16:13:45;6.43;;;5.77;;
16731;SDS011;8484;50.904;9.192;2023-11-21T16:19:11;8.43;;;6.60;;
16731;SDS011;8484;50.904;9.192;2023-11-21T16:21:50;8.93;;;6.90;;
16731;SDS011;8484;50.904;9.192;2023-11-21T16:24:21;10.00;;;7.57;;
16731;SDS011;8484;50.904;9.192;2023-11-21T16:26:55;9.27;;;7.80;;
16731;SDS011;8484;50.904;9.192;2023-11-21T16:29:27;10.07;;;7.60;;
16731;SDS011;8484;50.904;9.192;2023-11-21T16:31:58;7.77;;;6.97;;
16731;SDS011;8484;50.904;9.192;2023-11-21T16:34:33;9.97;;;8.07;;
16731;SDS011;8484;50.904;9.192;2023-11-21T16:37:05;10.50;;;7.03;;
16731;SDS011;8484;50.904;9.192;2023-11-21T16:43:16;9.07;;;7.43;;
16731;SDS011;8484;50.904;9.192;2023-11-21T16:46:27;8.93;;;7.77;;
16731;SDS011;8484;50.904;9.192;2023-11-21T16:52:44;8.33;;;7.43;;
16731;SDS011;8484;50.904;9.192;2023-11-21T16:55:34;18.60;;;14.63;;
16731;SDS011;8484;50.904;9.192;2023-11-21T16:58:59;22.17;;;15.90;;
16731;SDS011;8484;50.904;9.192;2023-11-21T17:01:55;22.17;;;18.17;;
16731;SDS011;8484;50.904;9.192;2023-11-21T17:08:34;8.50;;;7.23;;
16731;SDS011;8484;50.904;9.192;2023-11-21T17:11:42;6.30;;;5.43;;
16731;SDS011;8484;50.904;9.192;2023-11-21T17:25:11;5.53;;;4.80;;
16731;SDS011;8484;50.904;9.192;2023-11-21T17:28:26;7.47;;;5.10;;
16731;SDS011;8484;50.904;9.192;2023-11-21T17:35:41;10.77;;;5.20;;
16731;SDS011;8484;50.904;9.192;2023-11-21T17:38:31;5.70;;;5.17;;
16731;SDS011;8484;50.904;9.192;2023-11-21T17:44:50;7.63;;;5.67;;
16731;SDS011;8484;50.904;9.192;2023-11-21T17:47:54;6.10;;;5.20;;
16731;SDS011;8484;50.904;9.192;2023-11-21T17:53:19;5.80;;;4.87;;
16731;SDS011;8484;50.904;9.192;2023-11-21T17:55:00;6.50;;;4.53;;
16731;SDS011;8484;50.904;9.192;2023-11-21T17:58:24;6.33;;;5.23;;
16731;SDS011;8484;50.904;9.192;2023-11-21T18:05:19;6.43;;;4.90;;
16731;SDS011;8484;50.904;9.192;2023-11-21T18:08:19;6.90;;;4.33;;
16731;SDS011;8484;50.904;9.192;2023-11-21T18:11:40;6.13;;;5.50;;
16731;SDS011;8484;50.904;9.192;2023-11-21T18:14:59;6.23;;;5.47;;
16731;SDS011;8484;50.904;9.192;2023-11-21T18:18:20;5.90;;;5.40;;
16731;SDS011;8484;50.904;9.192;2023-11-21T18:21:06;6.20;;;5.03;;
16731;SDS011;8484;50.904;9.192;2023-11-21T18:24:06;6.60;;;5.60;;